Time;durP1;ratioP1;P1;durP2;ratioP2;P2;SDS_P1;SDS_P2;PMS_P1;PMS_P2;Temp;Humidity;BMP_temperature;BMP_pressure;BME280_temperature;BME280_humidity;BME280_pressure;Samples;Min_cycle;Max_cycle;Signal;HPM_P1;HPM_P2
2023/06/28 00:00:28;;;;;;;3.97;2.50;;;;;;;;;;4957271;28;20090;-80
2023/06/28 00:02:55;;;;;;;4.22;2.40;;;;;;;;;;4957432;28;20093;-80
2023/06/28 00:05:21;;;;;;;5.15;2.20;;;;;;;;;;4956283;28;20051;-78
2023/06/28 00:07:47;;;;;;;7.13;2.40;;;;;;;;;;4957160;28;20031;-80
2023/06/28 00:10:12;;;;;;;4.80;2.22;;;;;;;;;;4956877;29;20055;-79
2023/06/28 00:12:38;;;;;;;8.25;2.58;;;;;;;;;;4957609;28;20043;-80
2023/06/28 00:15:04;;;;;;;4.43;2.50;;;;;;;;;;4957512;28;20089;-80
2023/06/28 00:17:30;;;;;;;3.80;2.33;;;;;;;;;;4957314;28;20039;-79
2023/06/28 00:20:01;;;;;;;5.13;2.30;;;;;;;;;;4955921;28;20097;-79
2023/06/28 00:22:30;;;;;;;4.97;2.58;;;;;;;;;;4956480;29;20054;-80
2023/06/28 00:24:56;;;;;;;4.57;2.50;;;;;;;;;;4957158;28;20039;-79
2023/06/28 00:27:22;;;;;;;5.05;2.50;;;;;;;;;;4957450;28;20066;-80
2023/06/28 00:29:47;;;;;;;3.75;2.20;;;;;;;;;;4955459;28;20409;-80
2023/06/28 00:32:12;;;;;;;6.78;2.67;;;;;;;;;;4955674;28;20039;-83
2023/06/28 00:34:38;;;;;;;7.43;2.55;;;;;;;;;;4955463;28;20042;-80
2023/06/28 00:37:04;;;;;;;5.38;2.60;;;;;;;;;;4956565;28;20050;-81
2023/06/28 00:39:29;;;;;;;5.43;2.40;;;;;;;;;;4949708;28;20043;-82
2023/06/28 00:41:55;;;;;;;5.20;2.40;;;;;;;;;;4952728;28;20054;-81
2023/06/28 00:44:20;;;;;;;4.78;2.80;;;;;;;;;;4954675;28;20047;-81
2023/06/28 00:46:48;;;;;;;6.63;2.72;;;;;;;;;;4954663;28;20034;-82
2023/06/28 00:49:14;;;;;;;5.18;2.50;;;;;;;;;;4955571;28;20484;-80
2023/06/28 00:51:42;;;;;;;8.27;2.78;;;;;;;;;;4954508;29;20035;-81
2023/06/28 00:54:07;;;;;;;5.60;2.70;;;;;;;;;;4965939;28;20039;-81
2023/06/28 00:56:34;;;;;;;3.78;2.65;;;;;;;;;;4954097;29;20035;-80
2023/06/28 00:59:02;;;;;;;5.85;2.70;;;;;;;;;;4945354;28;20028;-78
2023/06/28 01:01:28;;;;;;;7.15;2.65;;;;;;;;;;4955056;28;20027;-78
2023/06/28 01:03:55;;;;;;;6.88;2.90;;;;;;;;;;4955725;28;20392;-78
2023/06/28 01:06:23;;;;;;;4.43;2.53;;;;;;;;;;4947853;28;20714;-78
2023/06/28 01:08:50;;;;;;;4.45;2.75;;;;;;;;;;4952248;28;20536;-80
2023/06/28 01:11:15;;;;;;;5.18;2.88;;;;;;;;;;4954696;28;20019;-81
2023/06/28 01:13:41;;;;;;;3.80;2.78;;;;;;;;;;4940898;28;20134;-80
2023/06/28 01:16:07;;;;;;;4.68;2.78;;;;;;;;;;4954392;28;20027;-78
2023/06/28 01:18:33;;;;;;;5.72;3.10;;;;;;;;;;4955435;29;20516;-78
2023/06/28 01:21:04;;;;;;;5.22;3.08;;;;;;;;;;4957664;28;20024;-79
2023/06/28 01:23:29;;;;;;;5.43;3.03;;;;;;;;;;4958272;28;20038;-79
2023/06/28 01:26:02;;;;;;;6.68;3.30;;;;;;;;;;4957554;28;20051;-79
2023/06/28 01:28:30;;;;;;;7.55;3.40;;;;;;;;;;4959098;28;20039;-79
2023/06/28 01:30:56;;;;;;;7.20;3.00;;;;;;;;;;4961949;28;20054;-80
2023/06/28 01:33:22;;;;;;;5.70;3.33;;;;;;;;;;4957761;29;20362;-80
2023/06/28 01:35:47;;;;;;;5.90;3.38;;;;;;;;;;4961251;28;20093;-80
2023/06/28 01:38:14;;;;;;;5.53;3.47;;;;;;;;;;4943273;29;20027;-79
2023/06/28 01:40:40;;;;;;;6.53;3.45;;;;;;;;;;4959876;28;20131;-79
2023/06/28 01:43:07;;;;;;;6.68;3.47;;;;;;;;;;4959324;29;20042;-79
2023/06/28 01:45:33;;;;;;;6.25;3.58;;;;;;;;;;4960949;28;20031;-78
2023/06/28 01:48:00;;;;;;;5.60;3.15;;;;;;;;;;4961235;28;20027;-80
2023/06/28 01:50:26;;;;;;;7.32;3.03;;;;;;;;;;4959144;28;20047;-80
2023/06/28 01:52:52;;;;;;;6.95;3.08;;;;;;;;;;4960088;29;20039;-80
2023/06/28 01:55:18;;;;;;;6.07;3.30;;;;;;;;;;4949833;29;20126;-80
2023/06/28 01:57:45;;;;;;;5.57;2.88;;;;;;;;;;4959293;28;20027;-79
2023/06/28 02:00:12;;;;;;;7.07;3.50;;;;;;;;;;4970280;28;20031;-79
2023/06/28 02:02:43;;;;;;;7.18;3.50;;;;;;;;;;4959885;28;20159;-79
2023/06/28 02:05:09;;;;;;;8.23;3.42;;;;;;;;;;4959018;28;20035;-79
2023/06/28 02:07:34;;;;;;;5.03;2.95;;;;;;;;;;4950075;28;20099;-79
2023/06/28 02:10:00;;;;;;;4.82;3.05;;;;;;;;;;4959247;28;20027;-80
2023/06/28 02:12:26;;;;;;;4.47;3.10;;;;;;;;;;4943484;29;20042;-80
2023/06/28 02:14:52;;;;;;;7.20;3.15;;;;;;;;;;4958727;28;20034;-79
2023/06/28 02:17:20;;;;;;;5.55;3.38;;;;;;;;;;4959044;28;20038;-79
2023/06/28 02:19:47;;;;;;;5.20;3.22;;;;;;;;;;4957306;28;20058;-80
2023/06/28 02:22:13;;;;;;;6.53;3.25;;;;;;;;;;4958628;28;20031;-78
2023/06/28 02:24:38;;;;;;;5.25;3.25;;;;;;;;;;4971593;28;20110;-79
2023/06/28 02:27:04;;;;;;;5.97;3.20;;;;;;;;;;4958907;28;20035;-80
2023/06/28 02:29:30;;;;;;;5.35;3.10;;;;;;;;;;4960060;28;20376;-80
2023/06/28 02:31:56;;;;;;;4.80;2.90;;;;;;;;;;4960037;28;20035;-80
2023/06/28 02:34:22;;;;;;;7.05;3.70;;;;;;;;;;4957536;29;20069;-78
2023/06/28 02:36:52;;;;;;;4.25;3.03;;;;;;;;;;4970700;28;20030;-78
2023/06/28 02:39:17;;;;;;;7.40;3.50;;;;;;;;;;4958726;28;20104;-80
2023/06/28 02:41:43;;;;;;;7.00;3.28;;;;;;;;;;4957868;28;20043;-80
2023/06/28 02:44:08;;;;;;;4.93;3.08;;;;;;;;;;4959077;28;20039;-80
2023/06/28 02:46:34;;;;;;;4.20;2.72;;;;;;;;;;4957519;28;20126;-80
2023/06/28 02:48:59;;;;;;;6.18;3.30;;;;;;;;;;4957260;28;20109;-80
2023/06/28 02:51:25;;;;;;;6.93;3.28;;;;;;;;;;4958686;28;20046;-81
2023/06/28 02:53:50;;;;;;;4.93;3.22;;;;;;;;;;4970438;28;20039;-80
2023/06/28 02:56:16;;;;;;;5.18;3.20;;;;;;;;;;4946647;29;20028;-80
2023/06/28 02:59:14;;;;;;;4.20;3.08;;;;;;;;;;4951502;28;20043;-80
2023/06/28 03:01:41;;;;;;;6.60;3.20;;;;;;;;;;4956728;28;20489;-80
2023/06/28 03:04:07;;;;;;;4.35;3.25;;;;;;;;;;4948206;28;20046;-79
2023/06/28 03:06:35;;;;;;;4.65;2.78;;;;;;;;;;4956173;28;20067;-80
2023/06/28 03:09:01;;;;;;;7.63;3.00;;;;;;;;;;4952569;29;20046;-79
2023/06/28 03:11:27;;;;;;;5.30;3.10;;;;;;;;;;4972328;28;20119;-80
2023/06/28 03:13:52;;;;;;;5.30;3.17;;;;;;;;;;4971548;28;20085;-80
2023/06/28 03:16:20;;;;;;;6.40;3.17;;;;;;;;;;4957093;28;20493;-80
2023/06/28 03:18:45;;;;;;;5.45;2.80;;;;;;;;;;4956375;28;20085;-80
2023/06/28 03:21:11;;;;;;;4.95;3.17;;;;;;;;;;4956682;29;20126;-80
2023/06/28 03:23:36;;;;;;;5.45;3.28;;;;;;;;;;4952388;28;20043;-80
2023/06/28 03:26:02;;;;;;;5.93;3.13;;;;;;;;;;4954330;29;20047;-79
2023/06/28 03:28:28;;;;;;;4.40;2.80;;;;;;;;;;4956179;28;20413;-79
2023/06/28 03:30:54;;;;;;;5.93;2.97;;;;;;;;;;4958633;28;20035;-80
2023/06/28 03:33:19;;;;;;;4.55;3.10;;;;;;;;;;4956467;29;20032;-80
2023/06/28 03:35:45;;;;;;;6.95;2.90;;;;;;;;;;4956730;28;20489;-80
2023/06/28 03:38:10;;;;;;;5.25;2.90;;;;;;;;;;4956069;28;20035;-79
2023/06/28 03:40:40;;;;;;;4.68;2.85;;;;;;;;;;4956565;28;20103;-79
2023/06/28 03:43:05;;;;;;;5.43;3.20;;;;;;;;;;4956528;28;20059;-80
2023/06/28 03:45:33;;;;;;;4.97;3.03;;;;;;;;;;4956555;28;20098;-80
2023/06/28 03:47:59;;;;;;;5.88;3.20;;;;;;;;;;4954553;28;20035;-80
2023/06/28 03:50:25;;;;;;;7.07;3.13;;;;;;;;;;4955881;28;20034;-80
2023/06/28 03:52:51;;;;;;;5.57;3.00;;;;;;;;;;4956457;28;20035;-80
2023/06/28 03:55:16;;;;;;;5.25;3.00;;;;;;;;;;4948986;28;20041;-80
2023/06/28 03:57:42;;;;;;;5.18;3.50;;;;;;;;;;4955716;28;20074;-80
2023/06/28 04:00:12;;;;;;;3.65;3.00;;;;;;;;;;4956352;28;20110;-80
2023/06/28 04:02:40;;;;;;;4.25;3.20;;;;;;;;;;4957078;28;20062;-80
2023/06/28 04:05:06;;;;;;;6.03;3.40;;;;;;;;;;4956164;29;20409;-80
2023/06/28 04:07:31;;;;;;;6.05;3.30;;;;;;;;;;4956897;28;20097;-80
2023/06/28 04:09:57;;;;;;;4.43;3.10;;;;;;;;;;4956338;28;20023;-80
2023/06/28 04:12:23;;;;;;;4.80;3.20;;;;;;;;;;4956126;28;20497;-80
2023/06/28 04:14:49;;;;;;;7.72;3.60;;;;;;;;;;4956120;28;20461;-80
2023/06/28 04:17:15;;;;;;;4.20;3.00;;;;;;;;;;4956586;28;20141;-80
2023/06/28 04:19:40;;;;;;;6.45;3.10;;;;;;;;;;4954500;28;20077;-80
2023/06/28 04:22:05;;;;;;;7.50;3.10;;;;;;;;;;4956133;28;20035;-80
2023/06/28 04:24:31;;;;;;;4.18;2.90;;;;;;;;;;4956112;28;20086;-79
2023/06/28 04:27:00;;;;;;;5.38;3.25;;;;;;;;;;4955978;28;20529;-79
2023/06/28 04:29:27;;;;;;;4.00;2.80;;;;;;;;;;4953101;28;20453;-80
2023/06/28 04:31:52;;;;;;;4.50;2.58;;;;;;;;;;4955958;28;20039;-79
2023/06/28 04:34:19;;;;;;;4.47;2.70;;;;;;;;;;4955341;28;20042;-80
2023/06/28 04:36:45;;;;;;;4.35;2.80;;;;;;;;;;4956046;28;20047;-79
2023/06/28 04:39:14;;;;;;;4.57;2.63;;;;;;;;;;4955560;28;20035;-79
2023/06/28 04:41:39;;;;;;;4.35;2.90;;;;;;;;;;4955264;29;20528;-79
2023/06/28 04:44:09;;;;;;;5.60;3.00;;;;;;;;;;4956583;28;20110;-79
2023/06/28 04:46:35;;;;;;;3.08;2.70;;;;;;;;;;4956678;28;20043;-79
2023/06/28 04:49:01;;;;;;;4.25;2.83;;;;;;;;;;4956183;28;20030;-79
2023/06/28 04:51:27;;;;;;;5.28;2.80;;;;;;;;;;4956185;28;20067;-79
2023/06/28 04:53:52;;;;;;;5.43;2.88;;;;;;;;;;4954994;29;20413;-78
2023/06/28 04:56:18;;;;;;;3.75;2.75;;;;;;;;;;4956276;28;20531;-78
2023/06/28 04:58:44;;;;;;;5.45;2.88;;;;;;;;;;4955510;28;20039;-78
2023/06/28 05:01:09;;;;;;;4.85;2.78;;;;;;;;;;4955956;28;20053;-78
2023/06/28 05:03:38;;;;;;;3.83;2.60;;;;;;;;;;4958059;28;20046;-80
2023/06/28 05:06:09;;;;;;;5.40;2.60;;;;;;;;;;4960476;28;20115;-80
2023/06/28 05:08:35;;;;;;;3.10;2.35;;;;;;;;;;4960582;28;20469;-80
2023/06/28 05:11:02;;;;;;;4.93;2.72;;;;;;;;;;4959608;28;20496;-79
2023/06/28 05:13:27;;;;;;;3.22;2.30;;;;;;;;;;4959868;28;20058;-79
2023/06/28 05:15:53;;;;;;;6.40;2.60;;;;;;;;;;4960158;28;20039;-79
2023/06/28 05:18:19;;;;;;;4.55;2.50;;;;;;;;;;4959844;28;20110;-80
2023/06/28 05:20:44;;;;;;;3.33;2.20;;;;;;;;;;4959198;28;20043;-78
2023/06/28 05:23:20;;;;;;;3.67;2.42;;;;;;;;;;4969082;28;20053;-81
2023/06/28 05:25:46;;;;;;;6.35;2.60;;;;;;;;;;4959021;29;20050;-80
2023/06/28 05:28:13;;;;;;;3.50;2.30;;;;;;;;;;4958925;28;20042;-79
2023/06/28 05:30:41;;;;;;;3.42;2.40;;;;;;;;;;4958989;28;20062;-79
2023/06/28 05:33:06;;;;;;;4.63;2.17;;;;;;;;;;4958400;29;20039;-80
2023/06/28 05:35:33;;;;;;;4.25;2.33;;;;;;;;;;4959347;28;20099;-80
2023/06/28 05:38:04;;;;;;;3.35;2.25;;;;;;;;;;4958132;29;20098;-79
2023/06/28 05:40:31;;;;;;;4.93;2.45;;;;;;;;;;4956922;28;20093;-79
2023/06/28 05:43:00;;;;;;;2.88;2.53;;;;;;;;;;4958038;28;20031;-79
2023/06/28 05:45:26;;;;;;;3.78;2.25;;;;;;;;;;4959439;28;20046;-80
2023/06/28 05:47:53;;;;;;;5.13;2.35;;;;;;;;;;4958738;28;20125;-79
2023/06/28 05:50:21;;;;;;;4.03;2.50;;;;;;;;;;4958013;28;20043;-80
2023/06/28 05:52:47;;;;;;;3.53;2.22;;;;;;;;;;4962757;28;20046;-81
2023/06/28 05:55:12;;;;;;;4.63;2.28;;;;;;;;;;4965547;28;20485;-78
2023/06/28 05:57:39;;;;;;;2.53;2.20;;;;;;;;;;4965469;28;20034;-80
2023/06/28 06:00:06;;;;;;;4.00;2.17;;;;;;;;;;4978248;28;20098;-78
2023/06/28 06:02:33;;;;;;;3.13;2.15;;;;;;;;;;4964219;28;20059;-79
2023/06/28 06:04:59;;;;;;;2.70;1.95;;;;;;;;;;4963672;29;20489;-80
2023/06/28 06:07:25;;;;;;;4.13;2.10;;;;;;;;;;4966976;28;20126;-80
2023/06/28 06:09:50;;;;;;;3.55;2.15;;;;;;;;;;4966538;28;20086;-80
2023/06/28 06:12:16;;;;;;;2.92;1.98;;;;;;;;;;4967797;28;20071;-80
2023/06/28 06:14:41;;;;;;;2.60;1.90;;;;;;;;;;4968217;28;20045;-80
2023/06/28 06:17:06;;;;;;;4.38;2.17;;;;;;;;;;4968642;28;20034;-80
2023/06/28 06:19:32;;;;;;;3.38;2.10;;;;;;;;;;4968137;28;20043;-79
2023/06/28 06:21:57;;;;;;;3.38;1.98;;;;;;;;;;4969105;28;20034;-81
2023/06/28 06:24:23;;;;;;;3.55;2.00;;;;;;;;;;4967342;28;20070;-80
2023/06/28 06:26:48;;;;;;;3.75;1.90;;;;;;;;;;4963015;28;20042;-80
2023/06/28 06:29:14;;;;;;;2.60;1.90;;;;;;;;;;4967000;28;20082;-82
2023/06/28 06:31:39;;;;;;;2.53;1.88;;;;;;;;;;4969968;28;20039;-80
2023/06/28 06:34:05;;;;;;;4.03;1.90;;;;;;;;;;4967271;29;20035;-80
2023/06/28 06:36:30;;;;;;;3.35;1.85;;;;;;;;;;4967960;28;20043;-80
2023/06/28 06:38:57;;;;;;;2.13;1.60;;;;;;;;;;4967307;28;20043;-81
2023/06/28 06:41:22;;;;;;;3.70;2.10;;;;;;;;;;4968087;28;20055;-81
2023/06/28 06:43:51;;;;;;;2.40;1.60;;;;;;;;;;4968084;28;20047;-81
2023/06/28 06:46:20;;;;;;;4.60;1.70;;;;;;;;;;4962520;28;20168;-81
2023/06/28 06:48:48;;;;;;;2.55;1.77;;;;;;;;;;4959798;29;20042;-80
2023/06/28 06:51:14;;;;;;;3.90;2.00;;;;;;;;;;4961259;29;20059;-80
2023/06/28 06:53:40;;;;;;;4.57;1.80;;;;;;;;;;4961569;29;20512;-80
2023/06/28 06:56:05;;;;;;;4.78;1.77;;;;;;;;;;4960776;28;20043;-80
2023/06/28 06:58:31;;;;;;;3.83;1.80;;;;;;;;;;4960942;28;20126;-80
2023/06/28 07:00:56;;;;;;;2.45;1.70;;;;;;;;;;4962109;28;20059;-81
2023/06/28 07:03:22;;;;;;;2.45;1.58;;;;;;;;;;4962664;28;20039;-81
2023/06/28 07:05:48;;;;;;;1.90;1.48;;;;;;;;;;4962406;28;20097;-80
2023/06/28 07:08:13;;;;;;;7.25;1.70;;;;;;;;;;4961550;28;20070;-81
2023/06/28 07:10:39;;;;;;;3.75;1.60;;;;;;;;;;4962041;28;20494;-80
2023/06/28 07:13:04;;;;;;;2.08;1.48;;;;;;;;;;4961957;29;20038;-81
2023/06/28 07:15:30;;;;;;;2.88;1.63;;;;;;;;;;4963158;28;20472;-81
2023/06/28 07:17:55;;;;;;;3.15;1.60;;;;;;;;;;4966673;28;20042;-80
2023/06/28 07:20:21;;;;;;;3.70;1.33;;;;;;;;;;4963693;28;20035;-80
2023/06/28 07:22:47;;;;;;;2.10;1.30;;;;;;;;;;4961968;28;20043;-80
2023/06/28 07:25:13;;;;;;;2.72;1.50;;;;;;;;;;4961325;28;20062;-80
2023/06/28 07:27:39;;;;;;;2.63;1.27;;;;;;;;;;4959136;29;20031;-80
2023/06/28 07:30:07;;;;;;;3.08;1.33;;;;;;;;;;4962515;28;20043;-81
2023/06/28 07:32:32;;;;;;;2.22;1.42;;;;;;;;;;4961766;28;20086;-81
2023/06/28 07:34:58;;;;;;;2.53;1.30;;;;;;;;;;4962388;28;20043;-80
2023/06/28 07:37:23;;;;;;;2.13;1.33;;;;;;;;;;4945021;29;20075;-81
2023/06/28 07:39:49;;;;;;;4.05;1.38;;;;;;;;;;4953208;29;20042;-81
2023/06/28 07:42:14;;;;;;;1.38;1.20;;;;;;;;;;4961722;28;20477;-80
2023/06/28 07:44:40;;;;;;;2.67;1.40;;;;;;;;;;4962563;28;20043;-80
2023/06/28 07:47:06;;;;;;;4.25;1.23;;;;;;;;;;4962292;28;20039;-80
2023/06/28 07:49:31;;;;;;;2.30;1.20;;;;;;;;;;4962534;28;20035;-80
2023/06/28 07:51:59;;;;;;;2.85;1.20;;;;;;;;;;4973513;28;20039;-81
2023/06/28 07:54:24;;;;;;;2.45;1.20;;;;;;;;;;4968298;29;20050;-81
2023/06/28 07:56:50;;;;;;;3.28;1.20;;;;;;;;;;4969327;28;20043;-81
2023/06/28 07:59:15;;;;;;;2.10;1.10;;;;;;;;;;4964075;28;20046;-81
2023/06/28 08:01:41;;;;;;;4.20;1.42;;;;;;;;;;4960914;28;20042;-82
2023/06/28 08:04:06;;;;;;;1.88;1.15;;;;;;;;;;4957777;29;20095;-82
2023/06/28 08:06:32;;;;;;;2.30;1.20;;;;;;;;;;4961467;28;20110;-81
2023/06/28 08:08:57;;;;;;;3.83;1.50;;;;;;;;;;4969073;28;20031;-81
2023/06/28 08:11:23;;;;;;;1.60;1.10;;;;;;;;;;4968977;28;20055;-81
2023/06/28 08:13:50;;;;;;;1.58;1.30;;;;;;;;;;4969324;28;20494;-82
2023/06/28 08:16:16;;;;;;;1.88;1.15;;;;;;;;;;4968442;28;20059;-81
2023/06/28 08:18:42;;;;;;;2.20;1.50;;;;;;;;;;4966725;28;20039;-81
2023/06/28 08:21:07;;;;;;;1.30;1.10;;;;;;;;;;4981212;28;20082;-82
2023/06/28 08:23:33;;;;;;;3.88;1.40;;;;;;;;;;4973167;28;20042;-80
2023/06/28 08:25:58;;;;;;;2.13;1.10;;;;;;;;;;4967674;28;20255;-80
2023/06/28 08:28:24;;;;;;;2.60;1.30;;;;;;;;;;4967524;28;20039;-81
2023/06/28 08:30:49;;;;;;;1.45;1.15;;;;;;;;;;4965249;28;20043;-82
2023/06/28 08:33:15;;;;;;;1.90;1.25;;;;;;;;;;4949934;29;20048;-81
2023/06/28 08:35:40;;;;;;;3.40;1.10;;;;;;;;;;4964810;28;20039;-80
2023/06/28 08:38:06;;;;;;;1.95;1.00;;;;;;;;;;4966494;28;20039;-81
2023/06/28 08:40:31;;;;;;;2.22;1.17;;;;;;;;;;4965446;28;20043;-80
2023/06/28 08:43:01;;;;;;;1.42;1.17;;;;;;;;;;4963569;28;20031;-84
2023/06/28 08:45:30;;;;;;;2.38;1.30;;;;;;;;;;4962424;28;20050;-81
2023/06/28 08:47:56;;;;;;;2.15;1.30;;;;;;;;;;4960316;28;20041;-80
2023/06/28 08:50:22;;;;;;;2.17;1.00;;;;;;;;;;4957949;28;20098;-83
2023/06/28 08:52:50;;;;;;;1.63;1.00;;;;;;;;;;4955482;28;20070;-80
2023/06/28 08:55:16;;;;;;;1.83;1.10;;;;;;;;;;4955200;28;20046;-81
2023/06/28 08:57:42;;;;;;;3.25;1.30;;;;;;;;;;4957019;28;20039;-81
2023/06/28 09:00:10;;;;;;;7.95;1.40;;;;;;;;;;4951042;29;20485;-81
2023/06/28 09:02:38;;;;;;;1.83;1.00;;;;;;;;;;4955901;28;20048;-80
2023/06/28 09:05:06;;;;;;;1.98;1.10;;;;;;;;;;4955523;28;20043;-81
2023/06/28 09:07:33;;;;;;;1.67;1.10;;;;;;;;;;4955947;29;20751;-81
2023/06/28 09:09:59;;;;;;;4.13;1.40;;;;;;;;;;4954158;29;20045;-82
2023/06/28 09:12:26;;;;;;;1.17;1.02;;;;;;;;;;4957747;28;20130;-81
2023/06/28 09:14:52;;;;;;;2.35;1.10;;;;;;;;;;4961455;28;20075;-81
2023/06/28 09:17:18;;;;;;;1.83;1.27;;;;;;;;;;4961665;28;20057;-81
2023/06/28 09:19:44;;;;;;;2.33;1.60;;;;;;;;;;4961118;29;20047;-81
2023/06/28 09:22:10;;;;;;;1.75;1.20;;;;;;;;;;4959399;28;20039;-81
2023/06/28 09:24:36;;;;;;;3.47;1.20;;;;;;;;;;4956472;28;20033;-81
2023/06/28 09:27:06;;;;;;;1.20;1.10;;;;;;;;;;4946457;29;20039;-81
2023/06/28 09:29:33;;;;;;;2.95;1.45;;;;;;;;;;4955559;29;20095;-80
2023/06/28 09:32:00;;;;;;;2.35;1.30;;;;;;;;;;4957503;28;20031;-82
2023/06/28 09:34:26;;;;;;;2.60;1.50;;;;;;;;;;4956976;28;20042;-81
2023/06/28 09:36:56;;;;;;;4.00;1.50;;;;;;;;;;4959431;28;20401;-81
2023/06/28 09:39:23;;;;;;;3.88;1.60;;;;;;;;;;4960415;28;20032;-80
2023/06/28 09:41:49;;;;;;;2.20;1.30;;;;;;;;;;4959191;28;20074;-80
2023/06/28 09:44:26;;;;;;;2.75;1.50;;;;;;;;;;4961981;29;20039;-80
2023/06/28 09:47:01;;;;;;;2.50;1.48;;;;;;;;;;4961669;28;20042;-80
2023/06/28 09:49:27;;;;;;;2.53;1.48;;;;;;;;;;4969517;28;20051;-80
2023/06/28 09:51:57;;;;;;;2.78;1.50;;;;;;;;;;4970757;28;20039;-80
2023/06/28 09:54:33;;;;;;;3.95;1.60;;;;;;;;;;4967656;28;20104;-81
2023/06/28 09:57:01;;;;;;;2.88;1.50;;;;;;;;;;4966763;29;20022;-81
2023/06/28 09:59:29;;;;;;;4.03;1.30;;;;;;;;;;4965879;28;20035;-81
2023/06/28 10:01:58;;;;;;;5.20;1.60;;;;;;;;;;4971326;28;20055;-84
2023/06/28 10:04:26;;;;;;;4.43;1.67;;;;;;;;;;4967382;28;20067;-81
2023/06/28 10:06:52;;;;;;;4.07;1.50;;;;;;;;;;4967305;28;20033;-81
2023/06/28 10:09:21;;;;;;;2.97;1.70;;;;;;;;;;4966849;29;20039;-81
2023/06/28 10:11:47;;;;;;;3.90;1.55;;;;;;;;;;4967839;28;20077;-81
2023/06/28 10:14:16;;;;;;;3.20;1.60;;;;;;;;;;4968734;28;20045;-81
2023/06/28 10:16:43;;;;;;;3.72;1.50;;;;;;;;;;4967361;28;20085;-82
2023/06/28 10:19:09;;;;;;;5.50;1.60;;;;;;;;;;4963030;28;20023;-81
2023/06/28 10:21:37;;;;;;;3.08;1.50;;;;;;;;;;4963438;28;20086;-81
2023/06/28 10:24:03;;;;;;;3.38;1.55;;;;;;;;;;4964885;28;20118;-81
2023/06/28 10:26:30;;;;;;;4.50;1.60;;;;;;;;;;4969801;28;20047;-82
2023/06/28 10:28:57;;;;;;;2.92;1.58;;;;;;;;;;4966354;29;20035;-81
2023/06/28 10:31:24;;;;;;;4.03;1.70;;;;;;;;;;4968596;28;20047;-81
2023/06/28 10:33:50;;;;;;;2.78;1.50;;;;;;;;;;4968693;28;20027;-82
2023/06/28 10:36:16;;;;;;;2.45;1.60;;;;;;;;;;4967905;28;20043;-81
2023/06/28 10:38:44;;;;;;;4.93;1.80;;;;;;;;;;4966642;28;20027;-81
2023/06/28 10:41:17;;;;;;;2.70;1.35;;;;;;;;;;4967292;28;20031;-81
2023/06/28 10:43:43;;;;;;;2.72;1.50;;;;;;;;;;4965418;28;20548;-83
2023/06/28 10:46:26;;;;;;;5.43;1.83;;;;;;;;;;4967702;28;20039;-81
2023/06/28 10:48:56;;;;;;;3.33;1.50;;;;;;;;;;4962897;28;20038;-80
2023/06/28 10:51:22;;;;;;;3.15;1.60;;;;;;;;;;4963315;29;20046;-81
2023/06/28 10:53:53;;;;;;;4.28;1.70;;;;;;;;;;4961723;29;20054;-81
2023/06/28 10:56:20;;;;;;;2.72;1.55;;;;;;;;;;4968873;28;20047;-82
2023/06/28 10:58:52;;;;;;;2.65;1.52;;;;;;;;;;4964683;28;20511;-80
2023/06/28 11:01:32;;;;;;;3.45;1.63;;;;;;;;;;4967681;28;20031;-81
2023/06/28 11:04:16;;;;;;;5.32;1.60;;;;;;;;;;4965181;29;20065;-83
2023/06/28 11:06:42;;;;;;;6.10;1.90;;;;;;;;;;4964013;29;20043;-83
2023/06/28 11:09:16;;;;;;;4.55;1.70;;;;;;;;;;4965835;28;20027;-82
2023/06/28 11:12:03;;;;;;;2.92;1.38;;;;;;;;;;4966018;29;20050;-82
2023/06/28 11:14:31;;;;;;;3.35;1.65;;;;;;;;;;4949483;29;20077;-81
2023/06/28 11:17:02;;;;;;;4.25;1.50;;;;;;;;;;4958863;28;20043;-82
2023/06/28 11:19:28;;;;;;;3.97;1.90;;;;;;;;;;4957670;28;20067;-81
2023/06/28 11:21:57;;;;;;;4.00;1.60;;;;;;;;;;4957793;28;20039;-82
2023/06/28 11:24:29;;;;;;;3.60;1.70;;;;;;;;;;4959422;28;20089;-82
2023/06/28 11:26:55;;;;;;;4.93;1.83;;;;;;;;;;4958142;29;20091;-81
2023/06/28 11:29:21;;;;;;;2.65;1.60;;;;;;;;;;4958942;28;20035;-82
2023/06/28 11:31:56;;;;;;;2.53;1.50;;;;;;;;;;4959569;28;20067;-82
2023/06/28 11:34:21;;;;;;;2.45;1.40;;;;;;;;;;4987524;23;20041;-83
2023/06/28 11:36:48;;;;;;;4.10;1.70;;;;;;;;;;5026940;28;20045;-81
2023/06/28 11:39:21;;;;;;;3.10;1.40;;;;;;;;;;5049796;28;20036;-81
2023/06/28 11:41:47;;;;;;;2.72;1.52;;;;;;;;;;5034797;28;20529;-81
2023/06/28 11:44:13;;;;;;;3.05;1.65;;;;;;;;;;5017678;28;20389;-82
2023/06/28 11:46:40;;;;;;;2.65;1.30;;;;;;;;;;5038637;28;20087;-83
2023/06/28 11:49:07;;;;;;;2.38;1.40;;;;;;;;;;5022829;28;20037;-82
2023/06/28 11:51:33;;;;;;;3.83;1.48;;;;;;;;;;5043449;28;20152;-82
2023/06/28 11:53:58;;;;;;;2.78;1.45;;;;;;;;;;5027098;28;20575;-81
2023/06/28 11:56:37;;;;;;;3.75;1.73;;;;;;;;;;5040777;28;20083;-83
2023/06/28 11:59:15;;;;;;;3.03;1.60;;;;;;;;;;5052857;28;20045;-83
2023/06/28 12:01:41;;;;;;;2.47;1.60;;;;;;;;;;5055848;28;20041;-83
2023/06/28 12:04:13;;;;;;;3.33;1.40;;;;;;;;;;5040728;28;20031;-83
2023/06/28 12:06:41;;;;;;;3.45;1.52;;;;;;;;;;5024659;28;20045;-83
2023/06/28 12:09:19;;;;;;;3.33;1.60;;;;;;;;;;5027809;28;20093;-85
2023/06/28 12:12:07;;;;;;;2.13;1.45;;;;;;;;;;5047858;28;20029;-83
2023/06/28 12:14:43;;;;;;;2.55;1.50;;;;;;;;;;5053646;28;20033;-85
2023/06/28 12:17:09;;;;;;;3.13;1.60;;;;;;;;;;5007625;28;20040;-84
2023/06/28 12:19:35;;;;;;;3.78;1.50;;;;;;;;;;5028795;28;20068;-84
2023/06/28 12:22:05;;;;;;;5.05;1.45;;;;;;;;;;5042680;28;20041;-85
2023/06/28 12:24:34;;;;;;;2.88;1.58;;;;;;;;;;5045035;28;20029;-85
2023/06/28 12:27:05;;;;;;;3.13;1.60;;;;;;;;;;5013867;28;20033;-85
2023/06/28 12:29:35;;;;;;;3.42;1.58;;;;;;;;;;5031753;28;20029;-86
2023/06/28 12:32:11;;;;;;;4.30;1.52;;;;;;;;;;5036346;28;20033;-85
2023/06/28 12:34:38;;;;;;;3.78;1.50;;;;;;;;;;5045840;28;20041;-83
2023/06/28 12:37:05;;;;;;;2.35;1.50;;;;;;;;;;5004704;28;20029;-84
2023/06/28 12:39:33;;;;;;;2.42;1.58;;;;;;;;;;5041157;28;20040;-85
2023/06/28 12:42:05;;;;;;;3.17;1.60;;;;;;;;;;5038048;23;20025;-84
2023/06/28 12:44:50;;;;;;;3.70;1.67;;;;;;;;;;5011362;28;20038;-85
2023/06/28 12:47:17;;;;;;;3.88;1.58;;;;;;;;;;5000513;28;20042;-85
2023/06/28 12:49:44;;;;;;;4.57;1.80;;;;;;;;;;5001653;28;20124;-84
2023/06/28 12:52:10;;;;;;;4.68;1.60;;;;;;;;;;5006888;28;20484;-83
2023/06/28 12:54:35;;;;;;;4.13;1.30;;;;;;;;;;5010330;28;20049;-85
2023/06/28 12:57:03;;;;;;;3.33;1.65;;;;;;;;;;5010052;28;20042;-85
2023/06/28 12:59:33;;;;;;;4.25;1.45;;;;;;;;;;5008461;28;20042;-83
2023/06/28 13:01:59;;;;;;;2.00;1.50;;;;;;;;;;5004801;28;20031;-84
2023/06/28 13:04:32;;;;;;;2.22;1.30;;;;;;;;;;5016735;28;20061;-83
2023/06/28 13:06:58;;;;;;;3.50;1.55;;;;;;;;;;5019995;28;20021;-83
2023/06/28 13:09:23;;;;;;;2.10;1.33;;;;;;;;;;5006133;28;20064;-81
2023/06/28 13:11:49;;;;;;;3.63;1.50;;;;;;;;;;5005893;28;20038;-82
2023/06/28 13:14:15;;;;;;;2.97;1.67;;;;;;;;;;5008265;28;20057;-82
2023/06/28 13:16:41;;;;;;;4.38;1.60;;;;;;;;;;5010358;28;20047;-82
2023/06/28 13:19:07;;;;;;;3.83;1.60;;;;;;;;;;5007135;28;20137;-83
2023/06/28 13:21:32;;;;;;;2.80;1.70;;;;;;;;;;5002472;28;20034;-82
2023/06/28 13:23:58;;;;;;;2.38;1.60;;;;;;;;;;5002832;28;20026;-81
2023/06/28 13:26:24;;;;;;;2.70;1.60;;;;;;;;;;5018114;28;20046;-81
2023/06/28 13:28:49;;;;;;;4.47;1.67;;;;;;;;;;5017754;28;20061;-81
2023/06/28 13:31:15;;;;;;;3.67;1.60;;;;;;;;;;5012536;28;20038;-82
2023/06/28 13:33:40;;;;;;;2.40;1.50;;;;;;;;;;5009836;28;20427;-84
2023/06/28 13:36:06;;;;;;;3.55;1.50;;;;;;;;;;5011370;28;20038;-83
2023/06/28 13:38:31;;;;;;;3.17;1.90;;;;;;;;;;5008983;28;20054;-85
2023/06/28 13:40:57;;;;;;;2.80;1.60;;;;;;;;;;5009938;28;20057;-82
2023/06/28 13:43:22;;;;;;;3.95;1.25;;;;;;;;;;5009136;28;20424;-84
2023/06/28 13:45:48;;;;;;;3.40;1.38;;;;;;;;;;5015582;28;20204;-83
2023/06/28 13:48:13;;;;;;;2.60;1.40;;;;;;;;;;5024963;28;20037;-83
2023/06/28 13:50:38;;;;;;;3.15;1.67;;;;;;;;;;4990551;28;20038;-84
2023/06/28 13:53:05;;;;;;;2.38;1.50;;;;;;;;;;5009293;28;20046;-81
2023/06/28 13:55:31;;;;;;;2.70;1.50;;;;;;;;;;5008882;28;20037;-84
2023/06/28 13:57:57;;;;;;;2.67;1.50;;;;;;;;;;5020300;28;20042;-83
2023/06/28 14:00:23;;;;;;;2.58;1.40;;;;;;;;;;5014505;28;20057;-82
2023/06/28 14:02:49;;;;;;;4.35;1.65;;;;;;;;;;5011801;28;20458;-83
2023/06/28 14:05:16;;;;;;;3.75;1.60;;;;;;;;;;5012503;28;20026;-82
2023/06/28 14:07:41;;;;;;;5.03;1.90;;;;;;;;;;5005263;28;20439;-84
2023/06/28 14:10:07;;;;;;;2.80;1.60;;;;;;;;;;5000900;28;20505;-83
2023/06/28 14:12:33;;;;;;;3.80;1.67;;;;;;;;;;5010218;28;20080;-84
2023/06/28 14:14:58;;;;;;;3.65;1.65;;;;;;;;;;5017088;28;20111;-83
2023/06/28 14:17:24;;;;;;;4.07;1.50;;;;;;;;;;5022775;28;20034;-84
2023/06/28 14:19:49;;;;;;;4.90;1.60;;;;;;;;;;5006102;28;20459;-82
2023/06/28 14:22:14;;;;;;;2.70;1.50;;;;;;;;;;5019194;28;20038;-82
2023/06/28 14:24:40;;;;;;;4.53;1.70;;;;;;;;;;5003524;28;20096;-84
2023/06/28 14:27:05;;;;;;;3.15;1.50;;;;;;;;;;5002925;28;20130;-85
2023/06/28 14:29:31;;;;;;;3.50;1.40;;;;;;;;;;5018410;28;20038;-84
2023/06/28 14:31:56;;;;;;;2.33;1.50;;;;;;;;;;5011044;28;20455;-84
2023/06/28 14:34:22;;;;;;;2.80;1.42;;;;;;;;;;5006768;28;20045;-84
2023/06/28 14:36:47;;;;;;;4.22;1.58;;;;;;;;;;5003954;28;20041;-83
2023/06/28 14:39:13;;;;;;;3.78;1.38;;;;;;;;;;5014784;28;20049;-84
2023/06/28 14:41:38;;;;;;;4.32;1.60;;;;;;;;;;4999092;28;20113;-83